createdAt,value
2019-06-10T00:02:11.126Z,20.24
2019-06-10T00:04:41.605Z,20.30
2019-06-10T00:07:11.887Z,20.40
2019-06-10T00:09:41.888Z,20.52
2019-06-10T00:12:12.761Z,20.60
2019-06-10T00:14:42.852Z,20.76
2019-06-10T00:17:12.817Z,20.68
2019-06-10T00:19:42.626Z,20.68
2019-06-10T00:22:13.636Z,20.80
2019-06-10T00:24:43.356Z,20.65
2019-06-10T00:27:12.970Z,20.63
2019-06-10T00:29:42.732Z,20.79
2019-06-10T00:32:13.306Z,20.73
2019-06-10T00:34:43.274Z,20.72
2019-06-10T00:37:14.630Z,20.42
2019-06-10T00:39:44.625Z,20.21
2019-06-10T00:42:15.337Z,20.24
2019-06-10T00:44:45.396Z,20.31
2019-06-10T00:47:15.578Z,20.40
2019-06-10T00:49:45.489Z,20.66
2019-06-10T00:52:15.217Z,20.66
2019-06-10T00:54:45.040Z,20.70
2019-06-10T00:57:14.976Z,20.58
2019-06-10T00:59:44.969Z,20.37
2019-06-10T01:02:14.693Z,20.37
2019-06-10T01:04:44.510Z,19.94
2019-06-10T01:07:14.962Z,19.94
2019-06-10T01:09:44.739Z,19.68
2019-06-10T01:12:15.128Z,19.75
2019-06-10T01:14:45.500Z,19.45
2019-06-10T01:17:15.685Z,19.45
2019-06-10T01:19:45.568Z,19.31
2019-06-10T01:22:17.209Z,19.33
2019-06-10T01:24:47.227Z,19.53
2019-06-10T01:27:18.054Z,19.53
2019-06-10T01:29:48.217Z,19.58
2019-06-10T01:32:17.992Z,19.58
2019-06-10T01:34:47.799Z,19.63
2019-06-10T01:37:17.777Z,19.88
2019-06-10T01:39:47.639Z,19.87
2019-06-10T01:42:17.464Z,19.72
2019-06-10T01:44:47.209Z,19.72
2019-06-10T01:47:17.692Z,19.73
2019-06-10T01:49:47.506Z,19.73
2019-06-10T01:52:18.401Z,19.88
2019-06-10T01:54:48.278Z,19.88
2019-06-10T01:57:18.759Z,19.88
2019-06-10T01:59:50.942Z,19.84
2019-06-10T02:02:24.005Z,19.85
2019-06-10T02:04:54.254Z,19.85
2019-06-10T02:07:24.323Z,19.93
2019-06-10T02:09:54.233Z,19.90
2019-06-10T02:12:24.475Z,19.90
2019-06-10T02:14:54.374Z,19.82
2019-06-10T02:17:24.298Z,19.80
2019-06-10T02:19:54.295Z,19.72
2019-06-10T02:22:24.551Z,19.61
2019-06-10T02:24:54.767Z,19.58
2019-06-10T02:27:24.552Z,19.45
2019-06-10T02:29:54.681Z,19.31
2019-06-10T02:32:31.579Z,19.33
2019-06-10T02:35:08.264Z,19.29
2019-06-10T02:37:32.147Z,19.31
2019-06-10T02:39:59.369Z,19.31
2019-06-10T02:42:36.939Z,19.35
2019-06-10T02:45:08.179Z,19.38
2019-06-10T02:47:38.525Z,19.31
2019-06-10T02:50:11.036Z,19.39
2019-06-10T02:52:44.458Z,19.33
2019-06-10T02:55:15.450Z,19.35
2019-06-10T02:57:45.368Z,19.33
2019-06-10T03:00:24.712Z,19.40
2019-06-10T03:02:47.153Z,19.45
2019-06-10T03:05:20.147Z,19.41
2019-06-10T03:07:53.107Z,19.39
2019-06-10T03:10:29.555Z,19.39
2019-06-10T03:12:52.913Z,19.46
2019-06-10T03:15:26.419Z,19.51
2019-06-10T03:17:55.563Z,19.60
2019-06-10T03:20:25.959Z,19.64
2019-06-10T03:22:55.858Z,19.69
2019-06-10T03:25:26.432Z,19.72
2019-06-10T03:27:57.175Z,19.77
2019-06-10T03:30:41.107Z,19.81
2019-06-10T03:32:58.456Z,19.81
2019-06-10T03:35:28.500Z,19.87
2019-06-10T03:37:58.323Z,19.85
2019-06-10T03:40:27.999Z,19.92
2019-06-10T03:42:57.983Z,19.94
2019-06-10T03:45:28.545Z,19.93
2019-06-10T03:47:58.380Z,19.99
2019-06-10T03:50:28.715Z,20.01
2019-06-10T03:53:01.144Z,20.18
2019-06-10T03:55:32.892Z,20.18
2019-06-10T03:58:02.314Z,20.18
2019-06-10T04:00:32.754Z,20.23
2019-06-10T04:03:02.906Z,20.40
2019-06-10T04:05:34.152Z,20.48
2019-06-10T04:08:03.848Z,20.62
2019-06-10T04:10:33.756Z,20.61
2019-06-10T04:13:04.030Z,20.72
2019-06-10T04:15:33.931Z,20.81
2019-06-10T04:18:04.117Z,20.81
2019-06-10T04:20:34.006Z,20.82
2019-06-10T04:23:03.867Z,20.84
2019-06-10T04:25:33.814Z,20.76
2019-06-10T04:28:03.736Z,20.42
2019-06-10T04:30:33.528Z,20.51
2019-06-10T04:33:03.380Z,20.58
2019-06-10T04:35:33.708Z,20.70
2019-06-10T04:38:03.507Z,20.70
2019-06-10T04:40:33.396Z,20.80
2019-06-10T04:43:03.310Z,21.11
2019-06-10T04:45:33.169Z,21.18
2019-06-10T04:48:03.214Z,21.37
2019-06-10T04:50:41.654Z,21.63
2019-06-10T04:53:05.740Z,21.60
2019-06-10T04:55:35.584Z,21.69
2019-06-10T04:58:07.016Z,21.52
2019-06-10T05:00:36.804Z,21.51
2019-06-10T05:03:06.704Z,21.17
2019-06-10T05:05:36.431Z,21.30
2019-06-10T05:08:06.283Z,21.50
2019-06-10T05:10:36.097Z,21.70
2019-06-10T05:13:05.876Z,21.70
2019-06-10T05:15:35.720Z,21.59
2019-06-10T05:18:05.563Z,22.00
2019-06-10T05:20:51.018Z,22.44
2019-06-10T05:23:06.896Z,22.28
2019-06-10T05:25:36.642Z,21.82
2019-06-10T05:28:06.399Z,22.04
2019-06-10T05:30:37.496Z,22.15
2019-06-10T05:33:07.152Z,22.06
2019-06-10T05:35:36.871Z,21.95
2019-06-10T05:38:06.750Z,22.38
2019-06-10T05:40:36.577Z,22.61
2019-06-10T05:43:06.335Z,22.54
2019-06-10T05:45:36.126Z,22.22
2019-06-10T05:48:07.313Z,22.01
2019-06-10T05:50:37.183Z,21.92
2019-06-10T05:53:06.898Z,22.14
2019-06-10T05:55:36.767Z,22.29
2019-06-10T05:58:06.634Z,22.46
2019-06-10T06:00:36.346Z,22.44
2019-06-10T06:03:06.299Z,22.50
2019-06-10T06:05:37.580Z,22.62
2019-06-10T06:08:08.814Z,22.67
2019-06-10T06:10:38.794Z,22.60
2019-06-10T06:13:08.661Z,22.53
2019-06-10T06:15:38.528Z,22.50
2019-06-10T06:18:10.831Z,22.19
2019-06-10T06:20:39.885Z,22.90
2019-06-10T06:23:12.123Z,22.77
2019-06-10T06:25:44.317Z,22.91
2019-06-10T06:28:16.026Z,22.89
2019-06-10T06:30:46.524Z,23.13
2019-06-10T06:33:16.242Z,22.54
2019-06-10T06:35:46.679Z,22.20
2019-06-10T06:38:16.747Z,22.27
2019-06-10T06:40:46.723Z,22.82
2019-06-10T06:43:16.685Z,22.97
2019-06-10T06:45:46.937Z,23.07
2019-06-10T06:48:16.748Z,23.23
2019-06-10T06:51:03.728Z,23.69
2019-06-10T06:53:28.587Z,23.63
2019-06-10T06:55:53.411Z,23.55
2019-06-10T06:58:23.185Z,23.43
2019-06-10T07:01:05.179Z,23.27
2019-06-10T07:03:24.717Z,23.40
2019-06-10T07:05:55.540Z,23.43
2019-06-10T07:08:26.972Z,23.85
2019-06-10T07:11:02.836Z,23.97
2019-06-10T07:13:37.116Z,24.11
2019-06-10T07:16:05.743Z,24.23
2019-06-10T07:18:40.953Z,24.20
2019-06-10T07:21:07.141Z,23.93
2019-06-10T07:23:40.485Z,23.84
2019-06-10T07:26:08.990Z,24.15
2019-06-10T07:28:40.777Z,24.39
2019-06-10T07:31:20.928Z,24.39
2019-06-10T07:33:46.807Z,24.59
2019-06-10T07:36:14.903Z,24.17
2019-06-10T07:38:48.586Z,24.03
2019-06-10T07:41:16.341Z,23.79
2019-06-10T07:43:49.488Z,24.15
2019-06-10T07:46:17.626Z,24.13
2019-06-10T07:48:48.670Z,24.32
2019-06-10T07:51:19.118Z,24.21
2019-06-10T07:53:48.798Z,24.24
2019-06-10T07:56:18.830Z,24.46
2019-06-10T07:58:48.767Z,24.43
2019-06-10T08:01:18.650Z,24.46
2019-06-10T08:03:48.259Z,24.44
2019-06-10T08:06:19.477Z,24.24
2019-06-10T08:08:49.209Z,24.40
2019-06-10T08:11:19.037Z,24.80
2019-06-10T08:13:48.894Z,24.67
2019-06-10T08:16:18.657Z,24.29
2019-06-10T08:19:16.029Z,24.29
2019-06-10T08:21:20.035Z,24.48
2019-06-10T08:23:49.996Z,24.58
2019-06-10T08:26:19.862Z,24.31
2019-06-10T08:28:49.576Z,23.79
2019-06-10T08:31:19.461Z,23.65
2019-06-10T08:33:49.311Z,23.95
2019-06-10T08:36:19.039Z,24.02
2019-06-10T08:38:48.910Z,24.29
2019-06-10T08:41:18.754Z,24.23
2019-06-10T08:43:48.559Z,24.45
2019-06-10T08:46:18.548Z,25.22
2019-06-10T08:48:49.619Z,25.97
2019-06-10T08:51:19.567Z,26.72
2019-06-10T08:53:50.088Z,26.74
2019-06-10T08:56:22.415Z,26.89
2019-06-10T08:58:54.065Z,25.98
2019-06-10T09:01:24.667Z,26.17
2019-06-10T09:03:54.460Z,26.83
2019-06-10T09:06:24.383Z,27.31
2019-06-10T09:08:54.745Z,27.35
2019-06-10T09:11:24.523Z,27.42
2019-06-10T09:13:54.331Z,27.61
2019-06-10T09:16:24.139Z,27.88
2019-06-10T09:18:55.275Z,27.21
2019-06-10T09:21:25.384Z,27.28
2019-06-10T09:23:59.710Z,27.75
2019-06-10T09:26:26.928Z,28.22
2019-06-10T09:28:56.879Z,28.41
2019-06-10T09:31:26.718Z,28.95
2019-06-10T09:33:57.211Z,29.20
2019-06-10T09:36:27.178Z,29.12
2019-06-10T09:38:57.111Z,28.98
2019-06-10T09:41:37.354Z,29.26
2019-06-10T09:43:58.469Z,29.10
2019-06-10T09:46:33.070Z,28.64
2019-06-10T09:49:04.150Z,29.23
2019-06-10T09:51:34.297Z,29.37
2019-06-10T09:54:06.568Z,29.35
2019-06-10T09:56:35.825Z,29.01
2019-06-10T09:59:05.640Z,28.64
2019-06-10T10:01:35.610Z,28.64
2019-06-10T10:04:05.507Z,28.86
2019-06-10T10:06:36.496Z,29.02
2019-06-10T10:09:07.438Z,29.19
2019-06-10T10:11:37.317Z,29.50
2019-06-10T10:14:10.338Z,29.19
2019-06-10T10:16:38.963Z,29.49
2019-06-10T10:19:09.069Z,29.77
2019-06-10T10:21:41.504Z,29.66
2019-06-10T10:24:14.595Z,30.13
2019-06-10T10:26:46.742Z,30.48
2019-06-10T10:29:15.429Z,31.06
2019-06-10T10:31:48.979Z,31.16
2019-06-10T10:34:16.455Z,30.88
2019-06-10T10:36:48.720Z,30.38
2019-06-10T10:39:21.278Z,30.17
2019-06-10T10:41:54.428Z,30.73
2019-06-10T10:44:22.213Z,30.68
2019-06-10T10:46:54.392Z,30.45
2019-06-10T10:49:23.793Z,30.07
2019-06-10T10:51:53.681Z,30.17
2019-06-10T10:54:32.850Z,30.35
2019-06-10T10:56:58.987Z,30.38
2019-06-10T10:59:27.006Z,30.35
2019-06-10T11:01:56.896Z,30.65
2019-06-10T11:04:27.782Z,30.37
2019-06-10T11:07:00.417Z,30.75
2019-06-10T11:09:29.403Z,30.44
2019-06-10T11:12:02.909Z,30.37
2019-06-10T11:14:34.081Z,30.08
2019-06-10T11:17:03.891Z,30.19
2019-06-10T11:19:33.873Z,30.36
2019-06-10T11:22:03.740Z,30.40
2019-06-10T11:24:40.904Z,30.11
2019-06-10T11:27:05.556Z,30.16
2019-06-10T11:29:35.537Z,30.37
2019-06-10T11:32:05.346Z,30.20
2019-06-10T11:34:36.413Z,30.11
2019-06-10T11:37:06.086Z,30.08
2019-06-10T11:39:38.699Z,30.31
2019-06-10T11:42:08.591Z,30.25
2019-06-10T11:44:38.618Z,30.21
2019-06-10T11:47:08.360Z,30.08
2019-06-10T11:49:38.140Z,30.25
2019-06-10T11:52:07.938Z,30.35
2019-06-10T11:54:51.697Z,29.94
2019-06-10T11:57:12.361Z,30.08
2019-06-10T11:59:43.431Z,30.15
2019-06-10T12:02:13.470Z,30.78
2019-06-10T12:04:43.176Z,31.41
2019-06-10T12:07:13.040Z,32.49
2019-06-10T12:09:42.906Z,32.81
2019-06-10T12:12:13.601Z,33.72
2019-06-10T12:14:43.482Z,35.06
2019-06-10T12:17:24.663Z,35.94
2019-06-10T12:19:44.743Z,35.79
2019-06-10T12:22:14.682Z,34.76
2019-06-10T12:24:44.554Z,34.63
2019-06-10T12:27:14.353Z,34.27
2019-06-10T12:29:45.420Z,33.99
2019-06-10T12:32:15.512Z,33.57
2019-06-10T12:34:46.431Z,33.82
2019-06-10T12:37:16.514Z,33.76
2019-06-10T12:39:46.337Z,34.37
2019-06-10T12:42:17.444Z,35.26
2019-06-10T12:44:47.252Z,34.96
2019-06-10T12:47:17.112Z,33.95
2019-06-10T12:49:47.282Z,33.74
2019-06-10T12:52:16.915Z,33.53
2019-06-10T12:54:46.855Z,33.21
2019-06-10T12:57:16.630Z,33.40
2019-06-10T12:59:46.344Z,33.34
2019-06-10T13:02:23.355Z,33.86
2019-06-10T13:04:49.348Z,33.64
2019-06-10T13:07:19.382Z,33.17
2019-06-10T13:09:49.233Z,33.67
2019-06-10T13:12:19.002Z,34.10
2019-06-10T13:14:48.962Z,34.73
2019-06-10T13:17:18.733Z,34.54
2019-06-10T13:19:48.554Z,34.52
2019-06-10T13:22:19.737Z,34.17
2019-06-10T13:24:49.614Z,33.14
2019-06-10T13:27:19.547Z,32.75
2019-06-10T13:29:49.522Z,32.87
2019-06-10T13:32:19.382Z,32.71
2019-06-10T13:34:49.297Z,31.66
2019-06-10T13:37:19.144Z,32.13
2019-06-10T13:39:49.012Z,31.39
2019-06-10T13:42:18.965Z,31.71
2019-06-10T13:44:48.744Z,30.86
2019-06-10T13:47:24.886Z,30.70
2019-06-10T13:49:53.258Z,31.59
2019-06-10T13:52:23.454Z,31.35
2019-06-10T13:54:53.178Z,32.00
2019-06-10T13:57:23.117Z,32.42
2019-06-10T13:59:52.975Z,32.43
2019-06-10T14:02:24.848Z,32.74
2019-06-10T14:04:54.264Z,32.86
2019-06-10T14:07:24.052Z,33.42
2019-06-10T14:09:53.856Z,33.97
2019-06-10T14:12:23.827Z,32.47
2019-06-10T14:14:53.920Z,31.11
2019-06-10T14:17:24.750Z,30.77
2019-06-10T14:19:54.588Z,30.86
2019-06-10T14:22:24.456Z,31.22
2019-06-10T14:24:54.195Z,31.89
2019-06-10T14:27:24.618Z,31.95
2019-06-10T14:29:55.358Z,31.77
2019-06-10T14:32:25.145Z,32.05
2019-06-10T14:34:54.907Z,31.67
2019-06-10T14:37:35.733Z,31.81
2019-06-10T14:39:56.342Z,32.69
2019-06-10T14:42:26.192Z,33.35
2019-06-10T14:44:56.081Z,33.56
2019-06-10T14:47:25.929Z,32.80
2019-06-10T14:49:55.710Z,33.16
2019-06-10T14:52:25.524Z,33.62
2019-06-10T14:54:57.627Z,33.63
2019-06-10T14:57:27.115Z,34.04
2019-06-10T14:59:57.020Z,34.39
2019-06-10T15:02:26.771Z,34.31
2019-06-10T15:04:56.738Z,33.55
2019-06-10T15:07:26.670Z,33.50
2019-06-10T15:09:56.640Z,33.99
2019-06-10T15:12:26.388Z,33.29
2019-06-10T15:14:56.308Z,33.76
2019-06-10T15:17:27.437Z,33.96
2019-06-10T15:19:57.380Z,34.42
2019-06-10T15:22:28.732Z,35.09
2019-06-10T15:24:58.530Z,34.35
2019-06-10T15:27:33.211Z,33.45
2019-06-10T15:30:00.312Z,33.38
2019-06-10T15:32:34.540Z,33.24
2019-06-10T15:35:03.317Z,33.77
2019-06-10T15:37:34.568Z,33.64
2019-06-10T15:40:05.212Z,34.34
2019-06-10T15:42:36.397Z,34.10
2019-06-10T15:45:06.573Z,33.18
2019-06-10T15:47:36.480Z,33.35
2019-06-10T15:50:07.962Z,33.03
2019-06-10T15:52:37.979Z,32.46
2019-06-10T15:55:08.277Z,32.34
2019-06-10T15:57:43.214Z,32.56
2019-06-10T16:00:17.657Z,32.31
2019-06-10T16:02:44.121Z,31.38
2019-06-10T16:05:15.810Z,31.44
2019-06-10T16:07:45.362Z,32.00
2019-06-10T16:10:18.963Z,32.21
2019-06-10T16:12:46.828Z,32.38
2019-06-10T16:15:18.154Z,32.61
2019-06-10T16:17:48.454Z,32.09
2019-06-10T16:20:19.430Z,31.85
2019-06-10T16:22:49.291Z,31.65
2019-06-10T16:25:20.008Z,31.20
2019-06-10T16:27:51.756Z,30.76
2019-06-10T16:30:23.241Z,31.45
2019-06-10T16:32:53.211Z,31.39
2019-06-10T16:35:23.945Z,31.65
2019-06-10T16:37:56.713Z,31.66
2019-06-10T16:40:27.243Z,31.30
2019-06-10T16:42:57.406Z,31.55
2019-06-10T16:45:30.662Z,29.45
2019-06-10T16:47:58.819Z,29.23
2019-06-10T16:50:29.853Z,29.17
2019-06-10T16:53:03.034Z,28.11
2019-06-10T16:55:33.244Z,27.79
2019-06-10T16:58:03.289Z,27.29
2019-06-10T17:00:34.894Z,26.90
2019-06-10T17:03:05.460Z,26.74
2019-06-10T17:05:35.360Z,26.35
2019-06-10T17:08:05.114Z,26.26
2019-06-10T17:10:34.894Z,26.00
2019-06-10T17:13:06.861Z,25.84
2019-06-10T17:15:36.698Z,25.80
2019-06-10T17:18:06.898Z,25.74
2019-06-10T17:20:36.745Z,25.75
2019-06-10T17:23:26.545Z,25.66
2019-06-10T17:25:55.549Z,25.54
2019-06-10T17:28:29.804Z,25.49
2019-06-10T17:30:58.814Z,25.50
2019-06-10T17:33:30.380Z,25.53
2019-06-10T17:36:00.269Z,25.45
2019-06-10T17:38:31.278Z,25.35
2019-06-10T17:41:02.906Z,25.35
2019-06-10T17:43:34.308Z,25.16
2019-06-10T17:46:04.484Z,25.11
2019-06-10T17:48:34.164Z,25.02
2019-06-10T17:51:04.116Z,24.99
2019-06-10T17:53:35.052Z,25.03
2019-06-10T17:56:05.028Z,24.93
2019-06-10T17:58:50.013Z,24.97
2019-06-10T18:01:06.545Z,24.90
2019-06-10T18:03:39.775Z,24.84
2019-06-10T18:06:08.115Z,24.82
2019-06-10T18:08:40.693Z,24.82
2019-06-10T18:11:09.259Z,24.81
2019-06-10T18:13:39.072Z,24.80
2019-06-10T18:16:09.024Z,24.77
2019-06-10T18:18:38.847Z,24.81
2019-06-10T18:21:08.603Z,24.79
2019-06-10T18:23:38.433Z,24.70
2019-06-10T18:26:08.171Z,24.71
2019-06-10T18:28:59.837Z,24.81
2019-06-10T18:31:09.691Z,24.82
2019-06-10T18:33:39.551Z,24.85
2019-06-10T18:36:09.342Z,24.71
2019-06-10T18:38:39.760Z,24.64
2019-06-10T18:41:09.674Z,24.59
2019-06-10T18:43:40.021Z,24.33
2019-06-10T18:46:12.524Z,24.32
2019-06-10T18:48:43.082Z,24.06
2019-06-10T18:51:12.987Z,23.56
2019-06-10T18:53:43.057Z,23.14
2019-06-10T18:56:13.088Z,22.92
2019-06-10T18:58:44.229Z,22.68
2019-06-10T19:01:14.152Z,22.57
2019-06-10T19:03:45.112Z,22.58
2019-06-10T19:06:14.904Z,22.47
2019-06-10T19:08:44.708Z,22.24
2019-06-10T19:11:14.535Z,22.10
2019-06-10T19:13:44.265Z,22.08
2019-06-10T19:16:15.303Z,22.11
2019-06-10T19:18:45.132Z,22.13
2019-06-10T19:21:15.363Z,22.15
2019-06-10T19:23:45.139Z,22.19
2019-06-10T19:26:14.986Z,22.19
2019-06-10T19:28:45.417Z,22.21
2019-06-10T19:31:15.200Z,22.20
2019-06-10T19:33:45.586Z,22.19
2019-06-10T19:36:15.371Z,22.19
2019-06-10T19:38:45.066Z,22.13
2019-06-10T19:41:14.918Z,22.18
2019-06-10T19:43:45.481Z,22.19
2019-06-10T19:46:15.318Z,22.16
2019-06-10T19:48:56.592Z,22.33
2019-06-10T19:51:18.044Z,22.01
2019-06-10T19:53:47.814Z,21.93
2019-06-10T19:56:17.856Z,21.54
2019-06-10T19:58:47.817Z,21.71
2019-06-10T20:01:17.682Z,21.58
2019-06-10T20:03:47.498Z,21.52
2019-06-10T20:06:17.261Z,21.40
2019-06-10T20:08:46.997Z,21.35
2019-06-10T20:11:16.836Z,21.41
2019-06-10T20:13:46.931Z,21.53
2019-06-10T20:16:16.788Z,21.64
2019-06-10T20:18:48.229Z,21.69
2019-06-10T20:21:18.345Z,21.72
2019-06-10T20:23:48.299Z,21.78
2019-06-10T20:26:18.086Z,21.68
2019-06-10T20:28:52.181Z,21.64
2019-06-10T20:31:19.277Z,21.70
2019-06-10T20:33:48.961Z,21.75
2019-06-10T20:36:23.326Z,21.64
2019-06-10T20:38:53.521Z,21.47
2019-06-10T20:41:23.144Z,21.45
2019-06-10T20:43:55.542Z,21.55
2019-06-10T20:46:24.521Z,21.64
2019-06-10T20:48:54.712Z,21.59
2019-06-10T20:51:27.094Z,21.55
2019-06-10T20:53:56.041Z,21.39
2019-06-10T20:56:25.889Z,21.38
2019-06-10T20:58:55.814Z,21.43
2019-06-10T21:01:25.857Z,21.50
2019-06-10T21:03:55.518Z,21.50
2019-06-10T21:06:26.547Z,21.30
2019-06-10T21:08:57.865Z,21.49
2019-06-10T21:11:27.535Z,21.39
2019-06-10T21:13:57.332Z,21.55
2019-06-10T21:16:27.103Z,21.62
2019-06-10T21:18:57.078Z,21.59
2019-06-10T21:21:27.007Z,21.75
2019-06-10T21:23:56.959Z,21.75
2019-06-10T21:26:26.715Z,21.80
2019-06-10T21:28:56.422Z,21.78
2019-06-10T21:31:29.426Z,21.80
2019-06-10T21:33:58.018Z,21.78
2019-06-10T21:36:27.806Z,21.90
2019-06-10T21:38:58.912Z,21.96
2019-06-10T21:41:28.830Z,21.99
2019-06-10T21:43:59.647Z,21.91
2019-06-10T21:46:29.635Z,21.88
2019-06-10T21:48:59.487Z,21.60
2019-06-10T21:51:31.677Z,21.45
2019-06-10T21:54:02.995Z,21.31
2019-06-10T21:56:32.938Z,21.27
2019-06-10T21:59:02.686Z,21.39
2019-06-10T22:01:32.873Z,21.39
2019-06-10T22:04:04.552Z,21.52
2019-06-10T22:06:34.537Z,21.53
2019-06-10T22:09:05.727Z,21.44
2019-06-10T22:11:35.590Z,21.49
2019-06-10T22:14:05.593Z,21.50
2019-06-10T22:16:35.481Z,21.61
2019-06-10T22:19:05.546Z,21.58
2019-06-10T22:21:35.568Z,21.50
2019-06-10T22:24:05.627Z,21.28
2019-06-10T22:26:35.496Z,21.05
2019-06-10T22:29:05.420Z,20.98
2019-06-10T22:31:36.682Z,20.89
2019-06-10T22:34:06.582Z,20.78
2019-06-10T22:36:36.606Z,20.78
2019-06-10T22:39:06.893Z,20.77
2019-06-10T22:41:37.052Z,20.62
2019-06-10T22:44:06.812Z,20.56
2019-06-10T22:46:37.136Z,20.51
2019-06-10T22:49:06.897Z,20.51
2019-06-10T22:51:36.816Z,20.51
2019-06-10T22:54:06.829Z,20.51
2019-06-10T22:56:36.692Z,20.38
2019-06-10T22:59:06.657Z,20.45
2019-06-10T23:01:38.327Z,20.46
2019-06-10T23:04:08.553Z,20.52
2019-06-10T23:06:38.586Z,20.72
2019-06-10T23:09:08.777Z,20.87
2019-06-10T23:11:38.925Z,20.99
2019-06-10T23:14:08.834Z,21.03
2019-06-10T23:16:38.798Z,21.03
2019-06-10T23:19:08.683Z,21.14
2019-06-10T23:21:38.765Z,21.19
2019-06-10T23:24:08.693Z,21.29
2019-06-10T23:26:38.713Z,21.37
2019-06-10T23:29:08.676Z,21.37
2019-06-10T23:31:49.542Z,21.42
2019-06-10T23:34:11.682Z,21.50
2019-06-10T23:36:43.223Z,21.48
2019-06-10T23:39:13.309Z,21.47
2019-06-10T23:41:43.491Z,21.53
2019-06-10T23:44:13.154Z,21.57
2019-06-10T23:46:43.954Z,21.48
2019-06-10T23:49:13.887Z,21.39
2019-06-10T23:51:43.894Z,21.30
2019-06-10T23:54:13.785Z,21.24
2019-06-10T23:56:43.533Z,21.16
2019-06-10T23:59:13.246Z,21.08
